Time;durP1;ratioP1;P1;durP2;ratioP2;P2;SDS_P1;SDS_P2;PMS_P1;PMS_P2;Temp;Humidity;BMP_temperature;BMP_pressure;BME280_temperature;BME280_humidity;BME280_pressure;Samples;Min_cycle;Max_cycle;Signal;HPM_P1;HPM_P2
2023/08/04 00:00:11;;;;;;;14.70;10.00;;;;;;;16.16;100.00;100590.02;105063;1260;72950;-44
2023/08/04 00:02:39;;;;;;;11.10;9.50;;;;;;;16.15;100.00;100595.14;105315;1260;63691;-46
2023/08/04 00:05:06;;;;;;;12.20;10.40;;;;;;;16.13;100.00;100592.25;105432;1260;72662;-43
2023/08/04 00:07:34;;;;;;;11.70;10.50;;;;;;;16.14;100.00;100589.09;105502;1263;61788;-44
2023/08/04 00:10:01;;;;;;;11.80;10.00;;;;;;;16.14;100.00;100584.89;105417;1260;60260;-44
2023/08/04 00:12:28;;;;;;;11.10;10.00;;;;;;;16.12;100.00;100592.64;105435;1260;71752;-44
2023/08/04 00:14:55;;;;;;;17.80;10.20;;;;;;;16.10;100.00;100594.10;105431;1261;65321;-44
2023/08/04 00:17:22;;;;;;;12.20;11.00;;;;;;;16.08;100.00;100589.64;105260;1260;72800;-44
2023/08/04 00:19:50;;;;;;;16.10;10.80;;;;;;;16.10;100.00;100589.76;105445;1260;61788;-44
2023/08/04 00:22:16;;;;;;;12.00;9.40;;;;;;;16.09;100.00;100591.86;105461;1260;60255;-44
2023/08/04 00:24:43;;;;;;;11.10;10.00;;;;;;;16.08;100.00;100591.23;105424;1261;72882;-44
2023/08/04 00:27:10;;;;;;;11.80;9.70;;;;;;;16.04;100.00;100591.02;105458;1263;65453;-44
2023/08/04 00:29:37;;;;;;;11.30;10.10;;;;;;;16.03;100.00;100590.02;105389;1262;72614;-44
2023/08/04 00:32:05;;;;;;;9.70;8.60;;;;;;;16.03;100.00;100590.54;105524;1263;61907;-44
2023/08/04 00:34:31;;;;;;;10.80;9.20;;;;;;;16.01;100.00;100591.83;105484;1260;60522;-44
2023/08/04 00:36:59;;;;;;;10.40;8.10;;;;;;;15.97;100.00;100592.84;105457;1260;73046;-44
2023/08/04 00:39:27;;;;;;;10.30;8.70;;;;;;;15.94;100.00;100599.24;105399;1263;65398;-44
2023/08/04 00:41:53;;;;;;;13.10;9.60;;;;;;;15.91;100.00;100602.66;105416;1260;72573;-44
2023/08/04 00:44:20;;;;;;;10.40;9.20;;;;;;;15.89;100.00;100603.93;105396;1263;61935;-44
2023/08/04 00:46:47;;;;;;;13.10;9.60;;;;;;;15.87;100.00;100607.50;105434;1260;60291;-43
2023/08/04 00:49:14;;;;;;;12.20;9.20;;;;;;;15.84;100.00;100608.83;105306;1261;72986;-44
2023/08/04 00:51:41;;;;;;;14.50;9.10;;;;;;;15.82;100.00;100609.09;105422;1260;65423;-44
2023/08/04 00:54:08;;;;;;;12.10;8.80;;;;;;;15.79;100.00;100607.09;105477;1260;72491;-44
2023/08/04 00:56:37;;;;;;;11.30;8.60;;;;;;;15.78;100.00;100605.91;105403;1263;61923;-45
2023/08/04 00:59:04;;;;;;;11.00;8.80;;;;;;;15.75;100.00;100604.98;105454;1260;60178;-44
2023/08/04 01:01:31;;;;;;;7.50;6.90;;;;;;;15.73;100.00;100608.89;105323;1260;73112;-45
2023/08/04 01:03:58;;;;;;;12.00;8.10;;;;;;;15.71;100.00;100613.13;105433;1263;65369;-45
2023/08/04 01:06:25;;;;;;;8.30;7.40;;;;;;;15.69;100.00;100614.06;105442;1260;72624;-45
2023/08/04 01:09:05;;;;;;;10.10;8.40;;;;;;;15.67;100.00;100612.75;105237;1264;61987;-45
2023/08/04 01:11:42;;;;;;;9.80;8.10;;;;;;;15.63;100.00;100612.35;105433;1260;59980;-45
2023/08/04 01:14:10;;;;;;;9.10;8.30;;;;;;;15.63;100.00;100612.91;105460;1263;73007;-45
2023/08/04 01:16:37;;;;;;;11.50;9.50;;;;;;;15.63;100.00;100610.63;105279;1260;65932;-45
2023/08/04 01:19:04;;;;;;;12.50;8.50;;;;;;;15.66;100.00;100611.55;105441;1260;71351;-45
2023/08/04 01:21:41;;;;;;;10.80;8.70;;;;;;;15.70;100.00;100615.42;105260;1266;62194;-45
2023/08/04 01:24:09;;;;;;;10.50;9.40;;;;;;;15.73;100.00;100616.17;105429;1260;60151;-45
2023/08/04 01:26:38;;;;;;;11.00;9.40;;;;;;;15.75;100.00;100614.88;105387;1260;73013;-45
2023/08/04 01:29:06;;;;;;;9.90;8.80;;;;;;;15.75;100.00;100615.21;105271;1264;65218;-45
2023/08/04 01:31:33;;;;;;;13.00;8.80;;;;;;;15.73;100.00;100618.29;105271;1260;72722;-45
2023/08/04 01:34:00;;;;;;;13.10;10.10;;;;;;;15.71;100.00;100619.55;105244;1266;61875;-45
2023/08/04 01:36:28;;;;;;;10.50;9.50;;;;;;;15.72;100.00;100616.90;105438;1260;60239;-45
2023/08/04 01:38:56;;;;;;;11.70;8.40;;;;;;;15.74;100.00;100618.21;105473;1259;73015;-45
2023/08/04 01:41:23;;;;;;;10.40;8.50;;;;;;;15.74;100.00;100620.31;105434;1263;65464;-45
2023/08/04 01:43:50;;;;;;;8.10;7.40;;;;;;;15.74;100.00;100621.72;105598;1255;72594;-43
2023/08/04 01:46:17;;;;;;;15.90;8.10;;;;;;;15.74;100.00;100623.27;105637;1259;61948;-43
2023/08/04 01:48:44;;;;;;;8.30;7.50;;;;;;;15.76;100.00;100628.05;105599;1257;60345;-44
2023/08/04 01:51:11;;;;;;;8.50;7.30;;;;;;;15.79;100.00;100627.96;105902;1259;73049;-47
2023/08/04 01:53:38;;;;;;;9.70;7.80;;;;;;;15.79;100.00;100630.74;105574;1259;65267;-45
2023/08/04 01:56:05;;;;;;;8.30;7.60;;;;;;;15.83;100.00;100630.62;105512;1257;71493;-45
2023/08/04 01:58:32;;;;;;;9.00;7.20;;;;;;;15.88;100.00;100634.08;105536;1257;61919;-45
2023/08/04 02:01:00;;;;;;;12.10;7.40;;;;;;;15.92;100.00;100633.59;105591;1256;60207;-45
2023/08/04 02:03:27;;;;;;;9.90;7.10;;;;;;;15.94;100.00;100630.39;105591;1256;71760;-46
2023/08/04 02:05:55;;;;;;;7.40;6.70;;;;;;;15.93;100.00;100634.09;105759;1259;65858;-45
2023/08/04 02:08:22;;;;;;;7.80;6.90;;;;;;;15.92;100.00;100640.39;105597;1257;72638;-45
2023/08/04 02:10:49;;;;;;;7.90;7.10;;;;;;;15.91;100.00;100639.74;105619;1259;61704;-45
2023/08/04 02:13:16;;;;;;;7.90;7.10;;;;;;;15.92;100.00;100641.60;105789;1257;60337;-45
2023/08/04 02:15:43;;;;;;;8.60;7.10;;;;;;;15.93;100.00;100639.33;105636;1258;73075;-46
2023/08/04 02:18:10;;;;;;;11.80;6.80;;;;;;;15.93;100.00;100639.12;105624;1260;65298;-46
2023/08/04 02:20:37;;;;;;;9.60;6.50;;;;;;;15.93;100.00;100643.66;105430;1257;72592;-46
2023/08/04 02:23:04;;;;;;;10.20;6.00;;;;;;;15.90;100.00;100642.39;105684;1260;61793;-47
2023/08/04 02:25:31;;;;;;;6.50;5.90;;;;;;;15.87;100.00;100645.95;105694;1257;60285;-45
2023/08/04 02:27:58;;;;;;;7.30;6.00;;;;;;;15.84;100.00;100646.05;105620;1259;73014;-45
2023/08/04 02:30:25;;;;;;;9.90;6.20;;;;;;;15.83;100.00;100645.94;105607;1260;65383;-45
2023/08/04 02:32:52;;;;;;;10.50;6.20;;;;;;;15.81;100.00;100648.77;105679;1256;72605;-45
2023/08/04 02:35:19;;;;;;;6.40;5.80;;;;;;;15.82;100.00;100648.92;105588;1259;61977;-45
2023/08/04 02:37:46;;;;;;;5.80;5.30;;;;;;;15.83;100.00;100654.30;105650;1257;60171;-45
2023/08/04 02:40:13;;;;;;;7.40;5.50;;;;;;;15.85;100.00;100654.70;105593;1258;73119;-45
2023/08/04 02:42:40;;;;;;;7.40;5.60;;;;;;;15.87;100.00;100652.02;105634;1260;65361;-45
2023/08/04 02:45:08;;;;;;;5.00;4.60;;;;;;;15.87;100.00;100655.35;105611;1257;72659;-45
2023/08/04 02:47:37;;;;;;;5.20;4.80;;;;;;;15.86;100.00;100653.80;105642;1256;61803;-45
2023/08/04 02:50:05;;;;;;;5.30;4.90;;;;;;;15.86;100.00;100653.82;105618;1258;60304;-45
2023/08/04 02:52:33;;;;;;;7.40;4.60;;;;;;;15.87;100.00;100654.99;105642;1260;72938;-45
2023/08/04 02:55:00;;;;;;;6.30;5.10;;;;;;;15.90;100.00;100658.56;105652;1257;65346;-45
2023/08/04 02:57:30;;;;;;;7.80;4.90;;;;;;;15.94;100.00;100662.93;105756;1257;73109;-45
2023/08/04 02:59:58;;;;;;;7.10;4.60;;;;;;;15.98;100.00;100663.31;105574;1258;62000;-45
2023/08/04 03:02:25;;;;;;;5.10;4.50;;;;;;;16.03;100.00;100663.98;105665;1255;60133;-45
2023/08/04 03:04:52;;;;;;;6.00;5.10;;;;;;;16.08;100.00;100663.27;105697;1260;71729;-45
2023/08/04 03:07:19;;;;;;;5.80;4.80;;;;;;;16.15;100.00;100669.12;105592;1260;65205;-45
2023/08/04 03:09:46;;;;;;;5.60;5.10;;;;;;;16.21;100.00;100670.09;105668;1257;72609;-45
2023/08/04 03:12:13;;;;;;;5.00;4.70;;;;;;;16.30;100.00;100670.45;105573;1259;62414;-45
2023/08/04 03:14:40;;;;;;;6.00;4.80;;;;;;;16.39;100.00;100669.93;105608;1255;60036;-45
2023/08/04 03:17:07;;;;;;;5.40;5.00;;;;;;;16.49;100.00;100670.77;105589;1259;73114;-45
2023/08/04 03:19:33;;;;;;;6.00;5.50;;;;;;;16.59;100.00;100673.48;105575;1258;64340;-45
2023/08/04 03:22:00;;;;;;;7.60;5.10;;;;;;;16.70;100.00;100674.45;105655;1258;72517;-45
2023/08/04 03:24:27;;;;;;;5.50;4.90;;;;;;;16.82;100.00;100673.61;105722;1260;61900;-44
2023/08/04 03:26:54;;;;;;;8.80;4.40;;;;;;;16.94;100.00;100672.95;105617;1257;60069;-44
2023/08/04 03:29:21;;;;;;;6.40;5.00;;;;;;;17.05;100.00;100674.30;105581;1257;72843;-44
2023/08/04 03:31:48;;;;;;;4.20;3.90;;;;;;;17.15;100.00;100674.88;105571;1257;65465;-44
2023/08/04 03:34:15;;;;;;;6.80;4.50;;;;;;;17.25;100.00;100675.02;105748;1258;71325;-44
2023/08/04 03:36:42;;;;;;;5.20;4.50;;;;;;;17.34;100.00;100672.20;105538;1257;61807;-44
2023/08/04 03:39:09;;;;;;;6.70;4.20;;;;;;;17.43;100.00;100671.29;105631;1259;60404;-44
2023/08/04 03:41:36;;;;;;;16.30;4.20;;;;;;;17.52;100.00;100668.27;105695;1257;73898;-44
2023/08/04 03:44:04;;;;;;;6.60;4.30;;;;;;;17.61;100.00;100665.95;105661;1258;65472;-44
2023/08/04 03:46:32;;;;;;;4.50;4.20;;;;;;;17.71;100.00;100662.20;105570;1259;72789;-45
2023/08/04 03:48:59;;;;;;;4.70;4.30;;;;;;;17.82;100.00;100661.34;105647;1260;61977;-44
2023/08/04 03:51:27;;;;;;;5.00;4.50;;;;;;;17.96;100.00;100662.84;105593;1257;60461;-44
2023/08/04 03:53:54;;;;;;;6.10;4.40;;;;;;;18.13;100.00;100659.80;105656;1259;74066;-44
2023/08/04 03:56:21;;;;;;;7.10;4.50;;;;;;;18.35;100.00;100654.74;105630;1260;65421;-44
2023/08/04 03:58:48;;;;;;;4.90;4.40;;;;;;;18.67;100.00;100650.41;105732;1257;72620;-44
2023/08/04 04:01:19;;;;;;;5.20;4.60;;;;;;;19.07;100.00;100657.04;105616;1259;61943;-45
2023/08/04 04:03:46;;;;;;;4.20;3.80;;;;;;;19.52;100.00;100655.07;105614;1255;60434;-44
2023/08/04 04:06:14;;;;;;;4.30;3.80;;;;;;;20.02;100.00;100654.38;105616;1260;73861;-45
2023/08/04 04:08:41;;;;;;;6.80;4.40;;;;;;;20.55;100.00;100652.83;105631;1256;64155;-45
2023/08/04 04:11:08;;;;;;;4.40;4.10;;;;;;;21.07;100.00;100654.23;105592;1254;71084;-45
2023/08/04 04:13:35;;;;;;;4.40;4.00;;;;;;;21.54;100.00;100658.27;105662;1260;60338;-44
2023/08/04 04:16:03;;;;;;;4.80;4.40;;;;;;;22.02;100.00;100662.70;105618;1256;60625;-44
2023/08/04 04:18:30;;;;;;;8.20;4.20;;;;;;;22.46;100.00;100670.84;105630;1259;73809;-44
2023/08/04 04:20:56;;;;;;;5.60;4.50;;;;;;;22.86;100.00;100676.64;105593;1260;65231;-44
2023/08/04 04:23:23;;;;;;;5.00;4.60;;;;;;;23.26;100.00;100688.09;105689;1257;72621;-44
2023/08/04 04:25:50;;;;;;;5.60;3.80;;;;;;;23.57;100.00;100702.70;105587;1258;60387;-44
2023/08/04 04:28:17;;;;;;;4.60;4.20;;;;;;;23.88;100.00;100731.58;105586;1257;60447;-44
2023/08/04 04:30:44;;;;;;;16.20;4.50;;;;;;;24.22;100.00;100767.45;105595;1260;73856;-44
2023/08/04 04:33:11;;;;;;;4.40;4.00;;;;;;;24.60;100.00;100834.24;105581;1260;65395;-44
2023/08/04 04:35:38;;;;;;;6.20;4.60;;;;;;;24.97;100.00;100945.48;105546;1257;72603;-44
2023/08/04 04:38:05;;;;;;;5.20;4.50;;;;;;;25.27;100.00;101125.71;105639;1258;60347;-44
2023/08/04 04:40:32;;;;;;;4.60;4.20;;;;;;;25.53;100.00;101272.55;105661;1254;60479;-44
2023/08/04 04:42:59;;;;;;;4.10;3.80;;;;;;;25.71;100.00;101136.97;105582;1256;73784;-46
2023/08/04 04:45:26;;;;;;;4.80;3.80;;;;;;;25.84;100.00;100753.59;105775;1259;65420;-45
2023/08/04 04:47:52;;;;;;;8.30;3.90;;;;;;;25.94;100.00;100448.85;105555;1260;72669;-46
2023/08/04 04:50:20;;;;;;;4.00;3.70;;;;;;;26.06;100.00;100276.17;105576;1258;60761;-44
2023/08/04 04:52:47;;;;;;;4.60;3.50;;;;;;;26.25;100.00;100194.88;105502;1257;60453;-45
2023/08/04 04:55:13;;;;;;;3.80;3.30;;;;;;;26.41;100.00;100157.52;105502;1255;73870;-44
2023/08/04 04:57:40;;;;;;;5.10;4.30;;;;;;;26.62;100.00;100157.36;105571;1259;65420;-44
2023/08/04 05:00:09;;;;;;;3.80;3.50;;;;;;;26.85;100.00;100172.71;105624;1258;72566;-44
2023/08/04 05:02:35;;;;;;;6.50;3.60;;;;;;;27.06;100.00;100198.19;105646;1260;60329;-44
2023/08/04 05:05:03;;;;;;;3.90;3.60;;;;;;;27.20;100.00;100243.45;105746;1257;60446;-44
2023/08/04 05:07:30;;;;;;;6.80;3.60;;;;;;;27.28;100.00;100295.72;105653;1258;73821;-44
2023/08/04 05:09:57;;;;;;;5.00;3.40;;;;;;;27.25;100.00;100346.42;105599;1258;65317;-44
2023/08/04 05:12:24;;;;;;;3.60;3.30;;;;;;;27.24;100.00;100380.34;105873;1251;72612;-45
2023/08/04 05:14:50;;;;;;;3.70;3.40;;;;;;;27.22;100.00;100408.64;105932;1256;60424;-44
2023/08/04 05:17:17;;;;;;;5.50;3.20;;;;;;;27.25;100.00;100405.60;105918;1251;60632;-44
2023/08/04 05:19:44;;;;;;;4.30;3.70;;;;;;;27.44;100.00;100386.70;105928;1251;73765;-45
2023/08/04 05:22:12;;;;;;;6.40;3.50;;;;;;;27.67;100.00;100394.61;105843;1256;65385;-44
2023/08/04 05:24:39;;;;;;;4.90;3.50;;;;;;;27.74;100.00;100432.06;105920;1256;71432;-46
2023/08/04 05:27:07;;;;;;;5.10;3.70;;;;;;;27.59;100.00;100476.44;106060;1256;60599;-45
2023/08/04 05:29:33;;;;;;;15.10;4.60;;;;;;;27.44;100.00;100494.97;105983;1251;60427;-45
2023/08/04 05:32:01;;;;;;;5.20;4.70;;;;;;;27.32;100.00;100491.60;105895;1253;73840;-45
2023/08/04 05:34:28;;;;;;;10.10;4.50;;;;;;;27.52;100.00;100479.92;105948;1255;65805;-45
2023/08/04 05:36:55;;;;;;;14.20;4.20;;;;;;;27.78;100.00;100479.33;105919;1251;72669;-45
2023/08/04 05:39:22;;;;;;;5.10;4.00;;;;;;;28.07;100.00;100489.86;105968;1251;60472;-45
2023/08/04 05:41:49;;;;;;;7.70;4.10;;;;;;;28.28;100.00;100495.94;106022;1251;60437;-47
2023/08/04 05:44:16;;;;;;;11.70;4.30;;;;;;;28.32;100.00;100511.33;105999;1251;74223;-45
2023/08/04 05:46:43;;;;;;;11.70;4.10;;;;;;;28.24;100.00;100541.89;105938;1256;65840;-45
2023/08/04 05:49:10;;;;;;;7.10;3.70;;;;;;;28.12;100.00;100550.20;106048;1251;72492;-45
2023/08/04 05:51:37;;;;;;;5.20;3.40;;;;;;;28.20;100.00;100550.38;106092;1256;60356;-46
2023/08/04 05:54:04;;;;;;;21.40;4.10;;;;;;;28.39;100.00;100553.25;105954;1251;60473;-45
2023/08/04 05:56:31;;;;;;;3.00;2.80;;;;;;;28.55;100.00;100545.44;105880;1256;73688;-45
2023/08/04 05:58:58;;;;;;;3.60;3.00;;;;;;;28.61;100.00;100564.38;105923;1257;65467;-48
2023/08/04 06:01:26;;;;;;;8.50;3.30;;;;;;;28.70;100.00;100571.23;105955;1255;72597;-46
2023/08/04 06:03:54;;;;;;;10.40;2.90;;;;;;;28.87;98.70;100571.63;106055;1255;60421;-45
2023/08/04 06:06:21;;;;;;;8.00;2.50;;;;;;;28.87;88.84;100548.52;105994;1251;60450;-45
2023/08/04 06:08:48;;;;;;;2.70;2.50;;;;;;;28.63;82.93;100545.27;105993;1251;74098;-45
2023/08/04 06:11:15;;;;;;;4.40;2.40;;;;;;;28.35;85.07;100586.61;105882;1256;65637;-45
2023/08/04 06:13:42;;;;;;;4.10;2.30;;;;;;;28.28;84.40;100583.60;105909;1251;72608;-44
2023/08/04 06:16:09;;;;;;;2.60;2.40;;;;;;;28.17;84.36;100596.64;105915;1255;60360;-44
2023/08/04 06:18:37;;;;;;;6.40;2.50;;;;;;;28.04;80.80;100571.00;105951;1251;60399;-44
2023/08/04 06:21:04;;;;;;;5.00;2.40;;;;;;;27.93;81.75;100593.59;105908;1251;73920;-45
2023/08/04 06:23:31;;;;;;;8.40;2.50;;;;;;;27.89;83.69;100612.39;105941;1256;65568;-45
2023/08/04 06:25:58;;;;;;;4.80;2.30;;;;;;;27.84;82.68;100611.08;106064;1251;71395;-46
2023/08/04 06:28:25;;;;;;;2.50;2.30;;;;;;;27.82;82.29;100611.77;105931;1256;60430;-46
2023/08/04 06:30:52;;;;;;;2.80;2.50;;;;;;;27.86;84.48;100620.31;105916;1251;60411;-45
2023/08/04 06:33:19;;;;;;;7.60;2.50;;;;;;;27.98;82.77;100598.62;105934;1256;73682;-46
2023/08/04 06:35:46;;;;;;;7.00;2.70;;;;;;;28.10;81.26;100598.50;105909;1255;65271;-46
2023/08/04 06:38:13;;;;;;;2.50;2.30;;;;;;;28.19;77.86;100567.92;105902;1251;72532;-46
2023/08/04 06:40:39;;;;;;;2.40;2.20;;;;;;;28.16;76.29;100575.03;105905;1256;60361;-46
2023/08/04 06:43:07;;;;;;;6.70;2.30;;;;;;;28.13;73.90;100552.09;106080;1251;60855;-45
2023/08/04 06:45:34;;;;;;;2.50;2.20;;;;;;;28.09;72.72;100545.66;105877;1252;73718;-45
2023/08/04 06:48:01;;;;;;;2.70;2.20;;;;;;;28.08;72.13;100554.31;105892;1255;65472;-45
2023/08/04 06:50:29;;;;;;;4.30;2.40;;;;;;;28.15;73.41;100586.19;105925;1251;72495;-46
2023/08/04 06:52:56;;;;;;;3.40;2.00;;;;;;;28.18;70.82;100543.85;105947;1255;60418;-44
2023/08/04 06:55:23;;;;;;;2.10;2.00;;;;;;;28.18;69.15;100532.46;105972;1256;60357;-44
2023/08/04 06:57:51;;;;;;;2.80;2.40;;;;;;;28.22;68.29;100528.74;105846;1255;73655;-45
2023/08/04 07:00:17;;;;;;;2.50;2.30;;;;;;;28.18;66.38;100502.75;105920;1255;65522;-45
2023/08/04 07:02:46;;;;;;;4.30;2.40;;;;;;;28.17;67.66;100551.04;105865;1252;72856;-45
2023/08/04 07:05:15;;;;;;;4.70;2.40;;;;;;;28.27;67.52;100543.19;106072;1256;60393;-45
2023/08/04 07:07:42;;;;;;;5.00;2.70;;;;;;;28.29;63.69;100452.05;105972;1251;60424;-45
2023/08/04 07:10:10;;;;;;;6.20;2.00;;;;;;;28.29;64.65;100503.10;106024;1257;73789;-46
2023/08/04 07:12:37;;;;;;;2.10;2.00;;;;;;;28.40;63.98;100495.15;106098;1251;64821;-48
2023/08/04 07:15:05;;;;;;;1.90;1.80;;;;;;;28.47;62.87;100470.23;105994;1256;72644;-44
2023/08/04 07:17:32;;;;;;;1.70;1.60;;;;;;;28.59;60.73;100407.13;105931;1255;60432;-45
2023/08/04 07:19:59;;;;;;;2.00;1.70;;;;;;;28.84;60.09;100403.02;106054;1256;60539;-46
2023/08/04 07:22:26;;;;;;;3.90;2.00;;;;;;;29.01;58.23;100339.11;105852;1256;74287;-45
2023/08/04 07:24:53;;;;;;;1.60;1.50;;;;;;;29.04;57.70;100334.17;105921;1255;65461;-45
2023/08/04 07:27:21;;;;;;;9.70;1.90;;;;;;;29.16;57.34;100343.09;106049;1257;73090;-45
2023/08/04 07:29:48;;;;;;;3.30;1.80;;;;;;;29.39;56.78;100334.25;105876;1256;60421;-45
2023/08/04 07:32:15;;;;;;;8.40;2.10;;;;;;;29.58;56.91;100355.11;105950;1251;60437;-45
2023/08/04 07:34:42;;;;;;;4.00;2.20;;;;;;;29.69;55.58;100284.76;105946;1254;73767;-45
2023/08/04 07:37:09;;;;;;;10.70;2.20;;;;;;;29.83;56.20;100335.55;105880;1256;65412;-46
2023/08/04 07:39:36;;;;;;;5.40;2.60;;;;;;;29.92;56.61;100381.95;105893;1252;72474;-46
2023/08/04 07:42:03;;;;;;;8.20;2.50;;;;;;;30.06;56.60;100385.13;105914;1256;60422;-45
2023/08/04 07:44:30;;;;;;;13.70;3.10;;;;;;;30.15;56.14;100365.45;105979;1251;60375;-45
2023/08/04 07:46:57;;;;;;;18.00;3.50;;;;;;;30.26;55.91;100355.97;105952;1250;73802;-45
2023/08/04 07:49:24;;;;;;;9.10;3.30;;;;;;;30.41;56.16;100375.42;105911;1255;65443;-45
2023/08/04 07:51:51;;;;;;;4.40;2.80;;;;;;;30.57;57.63;100467.31;105918;1257;72529;-46
2023/08/04 07:54:18;;;;;;;8.60;3.10;;;;;;;30.77;55.53;100325.85;105986;1256;60406;-45
2023/08/04 07:56:45;;;;;;;14.30;2.60;;;;;;;31.00;55.69;100350.88;105907;1251;60535;-45
2023/08/04 07:59:12;;;;;;;13.00;3.00;;;;;;;31.05;55.84;100364.77;105928;1256;73811;-46
2023/08/04 08:01:39;;;;;;;10.40;3.30;;;;;;;31.17;55.71;100372.21;105901;1255;65897;-45
2023/08/04 08:04:05;;;;;;;12.10;2.80;;;;;;;31.21;54.58;100311.19;105964;1251;72458;-45
2023/08/04 08:06:33;;;;;;;7.10;2.60;;;;;;;31.20;55.76;100405.81;105978;1257;60409;-45
2023/08/04 08:09:00;;;;;;;6.80;2.60;;;;;;;31.32;55.05;100355.53;105939;1257;60430;-45
2023/08/04 08:11:27;;;;;;;4.90;2.50;;;;;;;31.50;55.10;100385.70;105901;1256;73749;-45
2023/08/04 08:13:54;;;;;;;7.00;2.90;;;;;;;31.67;54.16;100318.23;105942;1256;65605;-46
2023/08/04 08:16:21;;;;;;;2.50;2.30;;;;;;;31.73;51.12;100097.70;105947;1251;72506;-45
2023/08/04 08:18:48;;;;;;;3.20;2.30;;;;;;;31.66;50.79;100104.81;105967;1257;60361;-46
2023/08/04 08:21:15;;;;;;;3.00;2.40;;;;;;;31.64;49.67;100013.34;105954;1257;60397;-45
2023/08/04 08:23:42;;;;;;;158.20;11.50;;;;;;;31.52;50.94;100155.13;105961;1256;73750;-46
2023/08/04 08:26:09;;;;;;;206.60;12.80;;;;;;;31.59;51.94;100250.27;105984;1256;65739;-46
2023/08/04 08:28:36;;;;;;;27.40;4.40;;;;;;;31.82;52.55;100314.78;105992;1251;72357;-46
2023/08/04 08:31:03;;;;;;;3.70;2.20;;;;;;;32.03;53.43;100378.77;106016;1257;60441;-46
2023/08/04 08:33:31;;;;;;;2.90;2.30;;;;;;;32.17;51.03;100174.84;106032;1251;60437;-46
2023/08/04 08:35:58;;;;;;;4.60;2.30;;;;;;;32.07;49.66;100064.06;105892;1256;73879;-45
2023/08/04 08:38:25;;;;;;;4.90;2.00;;;;;;;31.76;49.36;100039.45;105908;1257;65340;-45
2023/08/04 08:40:52;;;;;;;2.60;2.40;;;;;;;31.59;50.12;100144.03;105883;1251;72658;-46
2023/08/04 08:43:19;;;;;;;2.10;2.00;;;;;;;31.64;50.80;100221.89;105935;1264;60422;-45
2023/08/04 08:45:46;;;;;;;2.20;2.00;;;;;;;31.66;48.60;100022.02;105991;1251;60482;-45
2023/08/04 08:48:13;;;;;;;2.30;2.10;;;;;;;31.57;50.29;100180.30;105776;1256;73835;-45
2023/08/04 08:50:41;;;;;;;6.70;2.20;;;;;;;31.73;51.22;100292.45;105900;1257;65403;-45
2023/08/04 08:53:09;;;;;;;2.40;2.20;;;;;;;31.96;50.62;100238.55;105956;1256;72614;-45
2023/08/04 08:55:36;;;;;;;9.70;2.20;;;;;;;32.11;49.67;100139.09;105972;1256;60683;-46
2023/08/04 08:58:03;;;;;;;5.70;2.40;;;;;;;32.23;50.22;100216.73;105916;1254;60440;-45
2023/08/04 09:00:30;;;;;;;3.00;2.40;;;;;;;32.33;48.96;100071.39;105920;1256;73875;-45
2023/08/04 09:02:57;;;;;;;2.60;1.80;;;;;;;32.43;50.82;100259.52;105962;1264;65510;-45
2023/08/04 09:05:24;;;;;;;15.20;2.30;;;;;;;32.69;49.42;100105.21;105936;1256;72590;-45
2023/08/04 09:07:51;;;;;;;2.60;2.10;;;;;;;33.03;49.17;100072.50;105948;1257;60769;-45
2023/08/04 09:10:19;;;;;;;2.20;2.10;;;;;;;33.16;46.28;99796.52;105956;1252;60437;-45
2023/08/04 09:12:48;;;;;;;2.10;2.00;;;;;;;32.90;46.23;99771.23;105957;1255;73786;-45
2023/08/04 09:15:15;;;;;;;2.10;2.00;;;;;;;32.82;46.33;99828.14;105936;1256;65315;-45
2023/08/04 09:17:42;;;;;;;2.80;2.30;;;;;;;32.85;47.12;99920.45;105918;1256;72583;-45
2023/08/04 09:20:10;;;;;;;4.70;2.40;;;;;;;32.73;45.81;99797.43;105950;1251;61600;-45
2023/08/04 09:22:38;;;;;;;2.50;2.00;;;;;;;32.50;46.02;99850.98;105903;1252;60401;-46
2023/08/04 09:25:07;;;;;;;2.20;2.10;;;;;;;32.39;47.02;99968.02;105964;1251;73607;-46
2023/08/04 09:27:35;;;;;;;3.20;2.20;;;;;;;32.46;46.68;99948.20;105982;1257;65306;-48
2023/08/04 09:30:03;;;;;;;2.90;2.00;;;;;;;32.65;48.42;100125.70;105752;1256;72416;-49
2023/08/04 09:32:34;;;;;;;3.00;2.00;;;;;;;32.99;46.83;99970.23;105985;1256;60523;-47
2023/08/04 09:35:05;;;;;;;2.80;2.00;;;;;;;33.10;46.51;99936.94;106008;1257;60507;-45
2023/08/04 09:37:33;;;;;;;3.70;1.90;;;;;;;33.00;46.35;99934.02;106085;1256;73763;-48
2023/08/04 09:40:21;;;;;;;2.30;2.10;;;;;;;33.00;44.93;99767.60;105917;1256;65658;-45
2023/08/04 09:42:48;;;;;;;4.20;2.20;;;;;;;32.95;46.13;99909.77;105991;1254;72718;-49
2023/08/04 09:45:16;;;;;;;12.60;2.30;;;;;;;33.05;46.51;99950.16;105930;1264;60422;-46
2023/08/04 09:47:47;;;;;;;4.70;2.40;;;;;;;33.27;48.03;100104.95;105917;1257;60632;-46
2023/08/04 09:50:14;;;;;;;2.00;1.90;;;;;;;33.53;47.34;100089.19;105935;1257;73589;-48
2023/08/04 09:52:41;;;;;;;4.00;2.00;;;;;;;33.58;44.09;99716.04;105947;1256;65345;-45
2023/08/04 09:55:08;;;;;;;2.10;1.90;;;;;;;33.27;43.52;99632.84;105942;1255;72700;-45
2023/08/04 09:57:36;;;;;;;2.50;2.40;;;;;;;33.05;44.39;99733.54;105940;1257;60421;-45
2023/08/04 10:00:05;;;;;;;9.00;4.40;;;;;;;33.07;45.24;99845.95;105959;1252;60548;-45
2023/08/04 10:02:35;;;;;;;4.90;2.50;;;;;;;33.14;45.17;99875.30;105967;1257;73566;-46
2023/08/04 10:05:02;;;;;;;9.90;2.40;;;;;;;33.44;46.44;99986.92;105930;1251;65493;-45
2023/08/04 10:07:31;;;;;;;2.40;1.90;;;;;;;33.78;46.16;99976.29;105959;1256;73006;-45
2023/08/04 10:10:00;;;;;;;2.60;2.40;;;;;;;33.98;43.48;99688.52;105904;1256;60504;-45
2023/08/04 10:12:28;;;;;;;2.50;2.30;;;;;;;33.72;42.69;99570.71;105942;1251;60514;-45
2023/08/04 10:14:55;;;;;;;2.30;2.00;;;;;;;33.43;43.41;99654.71;105924;1255;73769;-45
2023/08/04 10:17:22;;;;;;;4.50;1.80;;;;;;;33.26;43.12;99663.88;105869;1257;65450;-45
2023/08/04 10:19:59;;;;;;;2.60;2.20;;;;;;;32.99;42.36;99546.71;105931;1256;72563;-45
2023/08/04 10:22:26;;;;;;;2.50;2.00;;;;;;;32.88;43.27;99672.92;106024;1256;60296;-46
2023/08/04 10:24:53;;;;;;;5.30;2.50;;;;;;;32.92;42.56;99603.92;105720;1251;60552;-45
2023/08/04 10:27:21;;;;;;;2.60;2.30;;;;;;;32.84;43.49;99705.71;106006;1257;73601;-45
2023/08/04 10:30:02;;;;;;;5.30;2.00;;;;;;;32.89;43.87;99771.70;105962;1255;65211;-44
2023/08/04 10:32:36;;;;;;;2.20;2.00;;;;;;;32.96;43.40;99748.80;105949;1257;72419;-46
2023/08/04 10:35:22;;;;;;;3.20;2.40;;;;;;;33.10;42.65;99640.14;105882;1251;60537;-46
2023/08/04 10:37:51;;;;;;;3.20;2.10;;;;;;;33.31;43.72;99775.55;105931;1252;60500;-46
2023/08/04 10:40:31;;;;;;;2.50;2.40;;;;;;;33.34;43.57;99765.45;105930;1254;73808;-46
2023/08/04 10:43:08;;;;;;;11.80;2.90;;;;;;;33.33;43.41;99738.33;105945;1257;65430;-46
2023/08/04 10:46:02;;;;;;;2.70;2.50;;;;;;;33.60;43.87;99821.77;105932;1255;72667;-47
2023/08/04 10:48:30;;;;;;;4.60;2.30;;;;;;;33.83;44.16;99838.34;106081;1256;60360;-46
2023/08/04 10:50:57;;;;;;;4.10;2.10;;;;;;;33.98;44.25;99837.91;105712;1251;60565;-46
2023/08/04 10:53:24;;;;;;;2.70;2.20;;;;;;;34.00;44.20;99821.02;105950;1253;73784;-46
2023/08/04 10:55:55;;;;;;;6.60;2.40;;;;;;;34.17;45.21;99926.98;105701;1258;65592;-46
2023/08/04 10:58:24;;;;;;;4.80;2.20;;;;;;;34.43;44.09;99830.55;106084;1256;73125;-46
2023/08/04 11:00:55;;;;;;;5.20;2.70;;;;;;;34.55;42.81;99668.18;105975;1252;60437;-47
2023/08/04 11:03:30;;;;;;;4.10;2.30;;;;;;;34.44;44.56;99835.83;106015;1252;60479;-45
2023/08/04 11:05:57;;;;;;;14.10;2.30;;;;;;;34.64;44.09;99816.79;106043;1251;73814;-44
2023/08/04 11:08:24;;;;;;;8.40;2.60;;;;;;;34.83;42.25;99623.08;106000;1255;65262;-45
2023/08/04 11:10:53;;;;;;;4.20;2.20;;;;;;;34.81;42.63;99639.73;106142;1251;72415;-46
2023/08/04 11:13:21;;;;;;;3.30;2.00;;;;;;;35.01;43.44;99709.75;106011;1254;60524;-45